sensor_id;sensor_type;location;lat;lon;timestamp;P1;durP1;ratioP1;P2;durP2;ratioP2
75050;SDS011;63628;47.656;11.310;2023-12-04T00:02:02;3.87;;;2.53;;
75050;SDS011;63628;47.656;11.310;2023-12-04T00:04:29;3.50;;;2.50;;
75050;SDS011;63628;47.656;11.310;2023-12-04T00:06:56;4.33;;;2.60;;
75050;SDS011;63628;47.656;11.310;2023-12-04T00:09:22;3.40;;;2.47;;
75050;SDS011;63628;47.656;11.310;2023-12-04T00:11:51;4.00;;;2.60;;
75050;SDS011;63628;47.656;11.310;2023-12-04T00:14:19;1.07;;;0.90;;
75050;SDS011;63628;47.656;11.310;2023-12-04T00:16:46;5.57;;;2.90;;
75050;SDS011;63628;47.656;11.310;2023-12-04T00:19:13;3.93;;;2.73;;
75050;SDS011;63628;47.656;11.310;2023-12-04T00:21:40;4.37;;;2.53;;
75050;SDS011;63628;47.656;11.310;2023-12-04T00:24:06;4.47;;;2.30;;
75050;SDS011;63628;47.656;11.310;2023-12-04T00:26:33;3.87;;;2.50;;
75050;SDS011;63628;47.656;11.310;2023-12-04T00:29:00;3.37;;;1.80;;
75050;SDS011;63628;47.656;11.310;2023-12-04T00:33:57;3.33;;;2.10;;
75050;SDS011;63628;47.656;11.310;2023-12-04T00:36:24;3.67;;;2.17;;
75050;SDS011;63628;47.656;11.310;2023-12-04T00:38:51;2.87;;;1.93;;
75050;SDS011;63628;47.656;11.310;2023-12-04T00:41:17;3.03;;;1.87;;
75050;SDS011;63628;47.656;11.310;2023-12-04T00:43:44;2.33;;;1.73;;
75050;SDS011;63628;47.656;11.310;2023-12-04T00:46:11;3.17;;;2.10;;
75050;SDS011;63628;47.656;11.310;2023-12-04T00:48:38;2.73;;;0.93;;
75050;SDS011;63628;47.656;11.310;2023-12-04T00:51:06;3.63;;;1.90;;
75050;SDS011;63628;47.656;11.310;2023-12-04T00:53:33;2.57;;;1.87;;
75050;SDS011;63628;47.656;11.310;2023-12-04T00:55:59;3.30;;;1.53;;
75050;SDS011;63628;47.656;11.310;2023-12-04T00:58:26;3.63;;;2.07;;
75050;SDS011;63628;47.656;11.310;2023-12-04T01:00:53;3.00;;;1.90;;
75050;SDS011;63628;47.656;11.310;2023-12-04T01:03:19;2.80;;;1.93;;
75050;SDS011;63628;47.656;11.310;2023-12-04T01:05:48;4.27;;;1.80;;
75050;SDS011;63628;47.656;11.310;2023-12-04T01:08:14;2.77;;;1.83;;
75050;SDS011;63628;47.656;11.310;2023-12-04T01:10:41;1.97;;;1.20;;
75050;SDS011;63628;47.656;11.310;2023-12-04T01:13:07;2.87;;;2.00;;
75050;SDS011;63628;47.656;11.310;2023-12-04T01:15:34;2.40;;;1.63;;
75050;SDS011;63628;47.656;11.310;2023-12-04T01:18:01;2.43;;;1.40;;
75050;SDS011;63628;47.656;11.310;2023-12-04T01:20:28;2.67;;;1.43;;
75050;SDS011;63628;47.656;11.310;2023-12-04T01:22:57;3.10;;;1.80;;
75050;SDS011;63628;47.656;11.310;2023-12-04T01:25:24;2.80;;;1.90;;
75050;SDS011;63628;47.656;11.310;2023-12-04T01:27:51;2.67;;;1.70;;
75050;SDS011;63628;47.656;11.310;2023-12-04T01:30:17;2.73;;;1.70;;
75050;SDS011;63628;47.656;11.310;2023-12-04T01:32:44;2.23;;;1.60;;
75050;SDS011;63628;47.656;11.310;2023-12-04T01:35:11;2.17;;;1.60;;
75050;SDS011;63628;47.656;11.310;2023-12-04T01:37:37;2.23;;;1.67;;
75050;SDS011;63628;47.656;11.310;2023-12-04T01:40:07;2.63;;;1.40;;
75050;SDS011;63628;47.656;11.310;2023-12-04T01:42:35;1.30;;;0.90;;
75050;SDS011;63628;47.656;11.310;2023-12-04T01:45:02;2.57;;;1.40;;
75050;SDS011;63628;47.656;11.310;2023-12-04T01:47:29;2.77;;;1.57;;
75050;SDS011;63628;47.656;11.310;2023-12-04T01:49:56;2.70;;;1.73;;
75050;SDS011;63628;47.656;11.310;2023-12-04T01:52:22;2.30;;;1.33;;
75050;SDS011;63628;47.656;11.310;2023-12-04T01:54:50;2.40;;;1.60;;
75050;SDS011;63628;47.656;11.310;2023-12-04T01:57:19;2.03;;;1.40;;
75050;SDS011;63628;47.656;11.310;2023-12-04T01:59:46;1.93;;;1.10;;
75050;SDS011;63628;47.656;11.310;2023-12-04T02:02:13;1.57;;;1.10;;
75050;SDS011;63628;47.656;11.310;2023-12-04T02:04:40;2.50;;;1.40;;
75050;SDS011;63628;47.656;11.310;2023-12-04T02:07:07;1.17;;;0.90;;
75050;SDS011;63628;47.656;11.310;2023-12-04T02:09:36;3.20;;;1.10;;
75050;SDS011;63628;47.656;11.310;2023-12-04T02:12:03;2.53;;;1.53;;
75050;SDS011;63628;47.656;11.310;2023-12-04T02:14:32;1.80;;;1.13;;
75050;SDS011;63628;47.656;11.310;2023-12-04T02:16:59;2.87;;;1.57;;
75050;SDS011;63628;47.656;11.310;2023-12-04T02:19:28;2.28;;;1.42;;
75050;SDS011;63628;47.656;11.310;2023-12-04T02:21:55;1.83;;;1.23;;
75050;SDS011;63628;47.656;11.310;2023-12-04T02:24:23;1.87;;;1.20;;
75050;SDS011;63628;47.656;11.310;2023-12-04T02:26:51;3.37;;;1.50;;
75050;SDS011;63628;47.656;11.310;2023-12-04T02:29:21;3.00;;;1.70;;
75050;SDS011;63628;47.656;11.310;2023-12-04T02:31:56;0.93;;;0.73;;
75050;SDS011;63628;47.656;11.310;2023-12-04T02:34:23;1.80;;;1.20;;
75050;SDS011;63628;47.656;11.310;2023-12-04T02:36:51;2.17;;;1.40;;
75050;SDS011;63628;47.656;11.310;2023-12-04T02:39:19;3.43;;;1.80;;
75050;SDS011;63628;47.656;11.310;2023-12-04T02:41:48;2.73;;;1.50;;
75050;SDS011;63628;47.656;11.310;2023-12-04T02:44:15;1.90;;;1.20;;
75050;SDS011;63628;47.656;11.310;2023-12-04T02:46:42;1.77;;;1.33;;
75050;SDS011;63628;47.656;11.310;2023-12-04T02:49:09;1.73;;;1.40;;
75050;SDS011;63628;47.656;11.310;2023-12-04T02:51:36;2.40;;;1.30;;
75050;SDS011;63628;47.656;11.310;2023-12-04T02:54:02;2.67;;;1.40;;
75050;SDS011;63628;47.656;11.310;2023-12-04T02:56:29;1.97;;;1.10;;
75050;SDS011;63628;47.656;11.310;2023-12-04T02:58:57;1.93;;;1.40;;
75050;SDS011;63628;47.656;11.310;2023-12-04T03:01:23;1.43;;;0.97;;
75050;SDS011;63628;47.656;11.310;2023-12-04T03:03:50;2.07;;;1.37;;
75050;SDS011;63628;47.656;11.310;2023-12-04T03:06:17;1.93;;;1.20;;
75050;SDS011;63628;47.656;11.310;2023-12-04T03:08:44;2.30;;;1.33;;
75050;SDS011;63628;47.656;11.310;2023-12-04T03:11:10;2.10;;;1.40;;
75050;SDS011;63628;47.656;11.310;2023-12-04T03:13:37;1.97;;;1.30;;
75050;SDS011;63628;47.656;11.310;2023-12-04T03:16:05;2.00;;;1.30;;
75050;SDS011;63628;47.656;11.310;2023-12-04T03:18:33;2.20;;;1.42;;
75050;SDS011;63628;47.656;11.310;2023-12-04T03:21:02;1.70;;;1.17;;
75050;SDS011;63628;47.656;11.310;2023-12-04T03:23:29;1.57;;;1.20;;
75050;SDS011;63628;47.656;11.310;2023-12-04T03:25:56;2.40;;;1.60;;
75050;SDS011;63628;47.656;11.310;2023-12-04T03:28:22;1.63;;;1.30;;
75050;SDS011;63628;47.656;11.310;2023-12-04T03:30:49;1.83;;;1.23;;
75050;SDS011;63628;47.656;11.310;2023-12-04T03:33:17;1.40;;;1.17;;
75050;SDS011;63628;47.656;11.310;2023-12-04T03:35:44;2.20;;;1.17;;
75050;SDS011;63628;47.656;11.310;2023-12-04T03:38:10;2.83;;;1.57;;
75050;SDS011;63628;47.656;11.310;2023-12-04T03:40:37;2.77;;;1.60;;
75050;SDS011;63628;47.656;11.310;2023-12-04T03:43:04;2.57;;;1.57;;
75050;SDS011;63628;47.656;11.310;2023-12-04T03:45:30;1.90;;;1.20;;
75050;SDS011;63628;47.656;11.310;2023-12-04T03:47:57;1.83;;;1.23;;
75050;SDS011;63628;47.656;11.310;2023-12-04T03:50:25;1.53;;;1.27;;
75050;SDS011;63628;47.656;11.310;2023-12-04T03:52:52;3.00;;;1.43;;
75050;SDS011;63628;47.656;11.310;2023-12-04T03:55:19;1.53;;;1.20;;
75050;SDS011;63628;47.656;11.310;2023-12-04T03:57:46;1.80;;;1.07;;
75050;SDS011;63628;47.656;11.310;2023-12-04T04:00:13;2.23;;;1.40;;
75050;SDS011;63628;47.656;11.310;2023-12-04T04:02:42;2.20;;;1.30;;
75050;SDS011;63628;47.656;11.310;2023-12-04T04:05:10;1.85;;;1.40;;
75050;SDS011;63628;47.656;11.310;2023-12-04T04:07:38;2.33;;;1.20;;
75050;SDS011;63628;47.656;11.310;2023-12-04T04:10:06;1.58;;;1.27;;
75050;SDS011;63628;47.656;11.310;2023-12-04T04:12:33;1.57;;;1.20;;
75050;SDS011;63628;47.656;11.310;2023-12-04T04:15:01;2.13;;;1.40;;
75050;SDS011;63628;47.656;11.310;2023-12-04T04:17:27;2.60;;;1.60;;
75050;SDS011;63628;47.656;11.310;2023-12-04T04:19:54;2.37;;;1.60;;
75050;SDS011;63628;47.656;11.310;2023-12-04T04:22:21;2.23;;;1.47;;
75050;SDS011;63628;47.656;11.310;2023-12-04T04:24:50;2.53;;;1.57;;
75050;SDS011;63628;47.656;11.310;2023-12-04T04:27:16;2.23;;;1.37;;
75050;SDS011;63628;47.656;11.310;2023-12-04T04:29:43;2.13;;;1.60;;
75050;SDS011;63628;47.656;11.310;2023-12-04T04:32:10;2.90;;;1.40;;
75050;SDS011;63628;47.656;11.310;2023-12-04T04:34:39;1.60;;;1.30;;
75050;SDS011;63628;47.656;11.310;2023-12-04T04:37:06;2.50;;;1.40;;
75050;SDS011;63628;47.656;11.310;2023-12-04T04:39:32;2.67;;;1.60;;
75050;SDS011;63628;47.656;11.310;2023-12-04T04:42:00;4.20;;;1.73;;
75050;SDS011;63628;47.656;11.310;2023-12-04T04:44:27;2.27;;;1.20;;
75050;SDS011;63628;47.656;11.310;2023-12-04T04:46:54;3.30;;;1.73;;
75050;SDS011;63628;47.656;11.310;2023-12-04T04:49:20;3.47;;;1.40;;
75050;SDS011;63628;47.656;11.310;2023-12-04T04:51:47;1.33;;;1.07;;
75050;SDS011;63628;47.656;11.310;2023-12-04T04:54:14;1.20;;;1.07;;
75050;SDS011;63628;47.656;11.310;2023-12-04T04:56:40;2.23;;;1.53;;
75050;SDS011;63628;47.656;11.310;2023-12-04T04:59:08;1.87;;;1.47;;
75050;SDS011;63628;47.656;11.310;2023-12-04T05:01:35;2.57;;;1.60;;
75050;SDS011;63628;47.656;11.310;2023-12-04T05:04:03;2.73;;;1.67;;
75050;SDS011;63628;47.656;11.310;2023-12-04T05:06:30;2.67;;;1.43;;
75050;SDS011;63628;47.656;11.310;2023-12-04T05:08:57;2.23;;;1.60;;
75050;SDS011;63628;47.656;11.310;2023-12-04T05:11:23;2.17;;;1.53;;
75050;SDS011;63628;47.656;11.310;2023-12-04T05:13:50;2.77;;;1.57;;
75050;SDS011;63628;47.656;11.310;2023-12-04T05:16:18;2.23;;;1.50;;
75050;SDS011;63628;47.656;11.310;2023-12-04T05:18:45;270.53;;;12.70;;
75050;SDS011;63628;47.656;11.310;2023-12-04T05:21:11;2.53;;;1.57;;
75050;SDS011;63628;47.656;11.310;2023-12-04T05:23:38;3.40;;;1.80;;
75050;SDS011;63628;47.656;11.310;2023-12-04T05:26:06;2.27;;;1.60;;
75050;SDS011;63628;47.656;11.310;2023-12-04T05:28:33;3.63;;;1.83;;
75050;SDS011;63628;47.656;11.310;2023-12-04T05:31:00;3.73;;;1.90;;
75050;SDS011;63628;47.656;11.310;2023-12-04T05:33:28;4.70;;;1.77;;
75050;SDS011;63628;47.656;11.310;2023-12-04T05:35:55;3.47;;;1.90;;
75050;SDS011;63628;47.656;11.310;2023-12-04T05:38:22;3.60;;;1.43;;
75050;SDS011;63628;47.656;11.310;2023-12-04T05:40:48;2.37;;;1.60;;
75050;SDS011;63628;47.656;11.310;2023-12-04T05:43:15;2.93;;;2.00;;
75050;SDS011;63628;47.656;11.310;2023-12-04T05:45:42;3.47;;;1.90;;
75050;SDS011;63628;47.656;11.310;2023-12-04T05:48:09;2.80;;;1.80;;
75050;SDS011;63628;47.656;11.310;2023-12-04T05:50:37;3.50;;;1.77;;
75050;SDS011;63628;47.656;11.310;2023-12-04T05:53:06;3.70;;;1.90;;
75050;SDS011;63628;47.656;11.310;2023-12-04T05:55:32;4.80;;;2.23;;
75050;SDS011;63628;47.656;11.310;2023-12-04T05:57:59;3.20;;;1.90;;
75050;SDS011;63628;47.656;11.310;2023-12-04T06:00:26;3.70;;;2.57;;
75050;SDS011;63628;47.656;11.310;2023-12-04T06:02:55;5.75;;;3.70;;
75050;SDS011;63628;47.656;11.310;2023-12-04T06:05:21;2.93;;;2.13;;
75050;SDS011;63628;47.656;11.310;2023-12-04T06:07:51;4.40;;;2.50;;
75050;SDS011;63628;47.656;11.310;2023-12-04T06:10:17;3.80;;;2.57;;
75050;SDS011;63628;47.656;11.310;2023-12-04T06:12:44;6.63;;;3.37;;
75050;SDS011;63628;47.656;11.310;2023-12-04T06:15:11;3.50;;;2.50;;
75050;SDS011;63628;47.656;11.310;2023-12-04T06:17:38;3.90;;;2.30;;
75050;SDS011;63628;47.656;11.310;2023-12-04T06:20:05;3.87;;;3.03;;
75050;SDS011;63628;47.656;11.310;2023-12-04T06:22:33;3.73;;;2.10;;
75050;SDS011;63628;47.656;11.310;2023-12-04T06:25:02;3.73;;;2.37;;
75050;SDS011;63628;47.656;11.310;2023-12-04T06:27:29;3.17;;;2.08;;
75050;SDS011;63628;47.656;11.310;2023-12-04T06:29:56;2.93;;;2.10;;
75050;SDS011;63628;47.656;11.310;2023-12-04T06:32:24;3.50;;;2.40;;
75050;SDS011;63628;47.656;11.310;2023-12-04T06:34:51;3.73;;;2.50;;
75050;SDS011;63628;47.656;11.310;2023-12-04T06:37:18;4.40;;;2.40;;
75050;SDS011;63628;47.656;11.310;2023-12-04T06:39:45;2.77;;;2.30;;
75050;SDS011;63628;47.656;11.310;2023-12-04T06:42:16;4.20;;;2.47;;
75050;SDS011;63628;47.656;11.310;2023-12-04T06:44:43;2.92;;;2.10;;
75050;SDS011;63628;47.656;11.310;2023-12-04T06:47:10;3.60;;;2.13;;
75050;SDS011;63628;47.656;11.310;2023-12-04T06:49:38;2.90;;;2.30;;
75050;SDS011;63628;47.656;11.310;2023-12-04T06:52:05;5.30;;;3.53;;
75050;SDS011;63628;47.656;11.310;2023-12-04T06:54:32;5.17;;;2.97;;
75050;SDS011;63628;47.656;11.310;2023-12-04T06:56:59;4.07;;;2.50;;
75050;SDS011;63628;47.656;11.310;2023-12-04T06:59:27;3.67;;;2.20;;
75050;SDS011;63628;47.656;11.310;2023-12-04T07:01:54;4.57;;;2.50;;
75050;SDS011;63628;47.656;11.310;2023-12-04T07:04:20;6.07;;;2.97;;
75050;SDS011;63628;47.656;11.310;2023-12-04T07:06:48;4.50;;;2.60;;
75050;SDS011;63628;47.656;11.310;2023-12-04T07:09:15;4.00;;;2.70;;
75050;SDS011;63628;47.656;11.310;2023-12-04T07:11:43;4.37;;;2.67;;
75050;SDS011;63628;47.656;11.310;2023-12-04T07:14:10;5.50;;;3.20;;
75050;SDS011;63628;47.656;11.310;2023-12-04T07:16:42;6.07;;;3.30;;
75050;SDS011;63628;47.656;11.310;2023-12-04T07:19:09;4.00;;;3.03;;
75050;SDS011;63628;47.656;11.310;2023-12-04T07:21:36;3.67;;;2.30;;
75050;SDS011;63628;47.656;11.310;2023-12-04T07:24:03;4.60;;;2.97;;
75050;SDS011;63628;47.656;11.310;2023-12-04T07:26:30;3.57;;;2.17;;
75050;SDS011;63628;47.656;11.310;2023-12-04T07:28:57;3.30;;;2.37;;
75050;SDS011;63628;47.656;11.310;2023-12-04T07:31:24;5.47;;;2.77;;
75050;SDS011;63628;47.656;11.310;2023-12-04T07:33:54;4.23;;;2.77;;
75050;SDS011;63628;47.656;11.310;2023-12-04T07:36:21;6.60;;;4.47;;
75050;SDS011;63628;47.656;11.310;2023-12-04T07:38:48;4.73;;;2.57;;
75050;SDS011;63628;47.656;11.310;2023-12-04T07:41:15;4.40;;;3.00;;
75050;SDS011;63628;47.656;11.310;2023-12-04T07:43:43;4.50;;;3.10;;
75050;SDS011;63628;47.656;11.310;2023-12-04T07:46:10;5.43;;;2.97;;
75050;SDS011;63628;47.656;11.310;2023-12-04T07:48:37;3.80;;;2.73;;
75050;SDS011;63628;47.656;11.310;2023-12-04T07:51:06;5.43;;;3.27;;
75050;SDS011;63628;47.656;11.310;2023-12-04T07:53:33;4.85;;;3.05;;
75050;SDS011;63628;47.656;11.310;2023-12-04T07:56:00;3.80;;;3.03;;
75050;SDS011;63628;47.656;11.310;2023-12-04T07:58:29;4.45;;;2.80;;
75050;SDS011;63628;47.656;11.310;2023-12-04T08:00:56;3.57;;;2.37;;
75050;SDS011;63628;47.656;11.310;2023-12-04T08:03:23;4.60;;;2.93;;
75050;SDS011;63628;47.656;11.310;2023-12-04T08:05:50;3.87;;;2.93;;
75050;SDS011;63628;47.656;11.310;2023-12-04T08:08:18;6.33;;;3.00;;
75050;SDS011;63628;47.656;11.310;2023-12-04T08:10:45;4.37;;;3.20;;
75050;SDS011;63628;47.656;11.310;2023-12-04T08:13:11;4.00;;;3.07;;
75050;SDS011;63628;47.656;11.310;2023-12-04T08:15:38;5.20;;;3.33;;
75050;SDS011;63628;47.656;11.310;2023-12-04T08:18:05;8.57;;;4.83;;
75050;SDS011;63628;47.656;11.310;2023-12-04T08:20:32;4.47;;;3.10;;
75050;SDS011;63628;47.656;11.310;2023-12-04T08:23:06;5.00;;;3.27;;
75050;SDS011;63628;47.656;11.310;2023-12-04T08:25:34;4.80;;;3.10;;
75050;SDS011;63628;47.656;11.310;2023-12-04T08:30:29;5.07;;;3.10;;
75050;SDS011;63628;47.656;11.310;2023-12-04T08:32:57;5.57;;;3.27;;
75050;SDS011;63628;47.656;11.310;2023-12-04T08:35:23;5.07;;;2.90;;
75050;SDS011;63628;47.656;11.310;2023-12-04T08:37:50;7.03;;;4.30;;
75050;SDS011;63628;47.656;11.310;2023-12-04T08:40:17;6.90;;;4.63;;
75050;SDS011;63628;47.656;11.310;2023-12-04T08:42:46;6.70;;;3.70;;
75050;SDS011;63628;47.656;11.310;2023-12-04T08:45:12;8.90;;;4.67;;
75050;SDS011;63628;47.656;11.310;2023-12-04T08:47:40;6.17;;;4.00;;
75050;SDS011;63628;47.656;11.310;2023-12-04T08:50:07;9.40;;;5.03;;
75050;SDS011;63628;47.656;11.310;2023-12-04T08:52:34;7.67;;;4.30;;
75050;SDS011;63628;47.656;11.310;2023-12-04T08:55:00;6.90;;;4.10;;
75050;SDS011;63628;47.656;11.310;2023-12-04T08:57:28;6.83;;;4.50;;
75050;SDS011;63628;47.656;11.310;2023-12-04T08:59:56;6.23;;;4.57;;
75050;SDS011;63628;47.656;11.310;2023-12-04T09:02:22;6.47;;;4.10;;
75050;SDS011;63628;47.656;11.310;2023-12-04T09:04:49;8.30;;;4.50;;
75050;SDS011;63628;47.656;11.310;2023-12-04T09:07:16;7.57;;;4.67;;
75050;SDS011;63628;47.656;11.310;2023-12-04T09:09:46;8.30;;;5.28;;
75050;SDS011;63628;47.656;11.310;2023-12-04T09:12:13;8.50;;;4.90;;
75050;SDS011;63628;47.656;11.310;2023-12-04T09:14:40;5.80;;;4.00;;
75050;SDS011;63628;47.656;11.310;2023-12-04T09:17:08;9.80;;;5.87;;
75050;SDS011;63628;47.656;11.310;2023-12-04T09:19:36;6.50;;;4.38;;
75050;SDS011;63628;47.656;11.310;2023-12-04T09:22:04;6.50;;;4.43;;
75050;SDS011;63628;47.656;11.310;2023-12-04T09:27:11;7.10;;;4.10;;
75050;SDS011;63628;47.656;11.310;2023-12-04T09:29:37;7.03;;;4.27;;
75050;SDS011;63628;47.656;11.310;2023-12-04T09:32:04;7.83;;;4.67;;
75050;SDS011;63628;47.656;11.310;2023-12-04T09:34:33;7.67;;;4.20;;
75050;SDS011;63628;47.656;11.310;2023-12-04T09:37:00;6.07;;;4.27;;
75050;SDS011;63628;47.656;11.310;2023-12-04T09:39:36;7.27;;;4.10;;
75050;SDS011;63628;47.656;11.310;2023-12-04T09:42:03;6.50;;;4.20;;
75050;SDS011;63628;47.656;11.310;2023-12-04T09:44:30;7.17;;;5.17;;
75050;SDS011;63628;47.656;11.310;2023-12-04T09:46:57;6.43;;;4.27;;
75050;SDS011;63628;47.656;11.310;2023-12-04T09:49:26;7.95;;;4.65;;
75050;SDS011;63628;47.656;11.310;2023-12-04T09:51:58;6.55;;;4.38;;
75050;SDS011;63628;47.656;11.310;2023-12-04T09:54:27;6.77;;;4.87;;
75050;SDS011;63628;47.656;11.310;2023-12-04T09:56:56;6.43;;;4.20;;
75050;SDS011;63628;47.656;11.310;2023-12-04T09:59:23;8.23;;;4.50;;
75050;SDS011;63628;47.656;11.310;2023-12-04T10:01:55;7.77;;;4.60;;
75050;SDS011;63628;47.656;11.310;2023-12-04T10:04:23;8.87;;;5.53;;
75050;SDS011;63628;47.656;11.310;2023-12-04T10:06:51;6.57;;;4.57;;
75050;SDS011;63628;47.656;11.310;2023-12-04T10:09:22;6.10;;;4.47;;
75050;SDS011;63628;47.656;11.310;2023-12-04T10:11:50;6.63;;;4.67;;
75050;SDS011;63628;47.656;11.310;2023-12-04T10:14:18;8.47;;;5.50;;
75050;SDS011;63628;47.656;11.310;2023-12-04T10:16:46;6.90;;;4.50;;
75050;SDS011;63628;47.656;11.310;2023-12-04T10:19:14;5.93;;;4.37;;
75050;SDS011;63628;47.656;11.310;2023-12-04T10:21:42;6.68;;;4.45;;
75050;SDS011;63628;47.656;11.310;2023-12-04T10:24:09;8.53;;;4.50;;
75050;SDS011;63628;47.656;11.310;2023-12-04T10:26:38;8.50;;;5.23;;
75050;SDS011;63628;47.656;11.310;2023-12-04T10:29:15;6.93;;;4.55;;
75050;SDS011;63628;47.656;11.310;2023-12-04T10:31:42;6.50;;;3.83;;
75050;SDS011;63628;47.656;11.310;2023-12-04T10:34:08;7.43;;;4.47;;
75050;SDS011;63628;47.656;11.310;2023-12-04T10:36:36;7.03;;;4.37;;
75050;SDS011;63628;47.656;11.310;2023-12-04T10:39:03;8.30;;;4.37;;
75050;SDS011;63628;47.656;11.310;2023-12-04T10:41:32;8.98;;;5.22;;
75050;SDS011;63628;47.656;11.310;2023-12-04T10:44:00;6.73;;;4.43;;
75050;SDS011;63628;47.656;11.310;2023-12-04T10:46:36;6.63;;;4.00;;
75050;SDS011;63628;47.656;11.310;2023-12-04T10:49:03;7.90;;;5.13;;
75050;SDS011;63628;47.656;11.310;2023-12-04T10:51:32;6.03;;;3.83;;
75050;SDS011;63628;47.656;11.310;2023-12-04T10:54:00;7.37;;;4.33;;
75050;SDS011;63628;47.656;11.310;2023-12-04T10:56:30;6.00;;;4.10;;
75050;SDS011;63628;47.656;11.310;2023-12-04T10:59:03;7.37;;;4.33;;
75050;SDS011;63628;47.656;11.310;2023-12-04T11:01:36;7.23;;;4.50;;
75050;SDS011;63628;47.656;11.310;2023-12-04T11:04:05;5.83;;;4.03;;
75050;SDS011;63628;47.656;11.310;2023-12-04T11:06:34;5.60;;;3.97;;
75050;SDS011;63628;47.656;11.310;2023-12-04T11:09:04;7.73;;;4.80;;
75050;SDS011;63628;47.656;11.310;2023-12-04T11:11:34;8.73;;;4.20;;
75050;SDS011;63628;47.656;11.310;2023-12-04T11:14:04;7.40;;;4.80;;
75050;SDS011;63628;47.656;11.310;2023-12-04T11:16:33;5.37;;;3.70;;
75050;SDS011;63628;47.656;11.310;2023-12-04T11:19:09;7.50;;;4.77;;
75050;SDS011;63628;47.656;11.310;2023-12-04T11:24:12;8.00;;;4.77;;
75050;SDS011;63628;47.656;11.310;2023-12-04T11:26:39;6.93;;;4.63;;
75050;SDS011;63628;47.656;11.310;2023-12-04T11:29:08;8.83;;;4.53;;
75050;SDS011;63628;47.656;11.310;2023-12-04T11:31:36;8.00;;;5.03;;
75050;SDS011;63628;47.656;11.310;2023-12-04T11:34:03;6.50;;;4.10;;
75050;SDS011;63628;47.656;11.310;2023-12-04T11:36:30;13.40;;;7.10;;
75050;SDS011;63628;47.656;11.310;2023-12-04T11:38:57;7.13;;;4.73;;
75050;SDS011;63628;47.656;11.310;2023-12-04T11:41:24;7.03;;;4.13;;
75050;SDS011;63628;47.656;11.310;2023-12-04T11:43:54;7.05;;;4.22;;
75050;SDS011;63628;47.656;11.310;2023-12-04T11:48:53;10.27;;;4.72;;
75050;SDS011;63628;47.656;11.310;2023-12-04T11:54:15;5.47;;;3.50;;
75050;SDS011;63628;47.656;11.310;2023-12-04T11:56:55;5.82;;;3.78;;
75050;SDS011;63628;47.656;11.310;2023-12-04T12:01:52;6.80;;;4.43;;
75050;SDS011;63628;47.656;11.310;2023-12-04T12:04:20;5.70;;;3.97;;
75050;SDS011;63628;47.656;11.310;2023-12-04T12:06:47;6.37;;;4.20;;
75050;SDS011;63628;47.656;11.310;2023-12-04T12:09:14;6.30;;;3.73;;
75050;SDS011;63628;47.656;11.310;2023-12-04T12:11:41;5.80;;;3.83;;
75050;SDS011;63628;47.656;11.310;2023-12-04T12:14:07;7.23;;;4.13;;
75050;SDS011;63628;47.656;11.310;2023-12-04T12:16:34;7.13;;;3.10;;
75050;SDS011;63628;47.656;11.310;2023-12-04T12:19:02;6.10;;;3.70;;
75050;SDS011;63628;47.656;11.310;2023-12-04T12:21:29;5.27;;;3.40;;
75050;SDS011;63628;47.656;11.310;2023-12-04T12:23:56;7.10;;;3.53;;
75050;SDS011;63628;47.656;11.310;2023-12-04T12:26:23;4.00;;;2.80;;
75050;SDS011;63628;47.656;11.310;2023-12-04T12:28:49;6.23;;;3.60;;
75050;SDS011;63628;47.656;11.310;2023-12-04T12:31:17;8.83;;;5.43;;
75050;SDS011;63628;47.656;11.310;2023-12-04T12:33:44;5.23;;;3.67;;
75050;SDS011;63628;47.656;11.310;2023-12-04T12:36:12;5.97;;;3.30;;
75050;SDS011;63628;47.656;11.310;2023-12-04T12:38:40;7.43;;;3.92;;
75050;SDS011;63628;47.656;11.310;2023-12-04T12:41:07;11.20;;;6.97;;
75050;SDS011;63628;47.656;11.310;2023-12-04T12:43:38;6.57;;;4.60;;
75050;SDS011;63628;47.656;11.310;2023-12-04T12:46:05;13.63;;;8.60;;
75050;SDS011;63628;47.656;11.310;2023-12-04T12:48:32;9.47;;;5.87;;
75050;SDS011;63628;47.656;11.310;2023-12-04T12:50:59;12.07;;;6.37;;
75050;SDS011;63628;47.656;11.310;2023-12-04T12:53:29;9.45;;;6.05;;
75050;SDS011;63628;47.656;11.310;2023-12-04T12:55:59;26.60;;;13.03;;
75050;SDS011;63628;47.656;11.310;2023-12-04T12:58:27;30.90;;;15.13;;
75050;SDS011;63628;47.656;11.310;2023-12-04T13:00:53;19.17;;;11.50;;
75050;SDS011;63628;47.656;11.310;2023-12-04T13:03:21;7.87;;;6.43;;
75050;SDS011;63628;47.656;11.310;2023-12-04T13:05:48;12.30;;;6.23;;
75050;SDS011;63628;47.656;11.310;2023-12-04T13:08:14;10.83;;;6.73;;
75050;SDS011;63628;47.656;11.310;2023-12-04T13:10:43;10.60;;;6.07;;
75050;SDS011;63628;47.656;11.310;2023-12-04T13:13:09;8.27;;;5.60;;
75050;SDS011;63628;47.656;11.310;2023-12-04T13:15:37;11.30;;;6.73;;
75050;SDS011;63628;47.656;11.310;2023-12-04T13:18:04;9.60;;;5.80;;
75050;SDS011;63628;47.656;11.310;2023-12-04T13:20:31;10.00;;;6.90;;
75050;SDS011;63628;47.656;11.310;2023-12-04T13:22:57;9.33;;;5.63;;
75050;SDS011;63628;47.656;11.310;2023-12-04T13:25:24;8.80;;;5.90;;
75050;SDS011;63628;47.656;11.310;2023-12-04T13:27:57;10.00;;;5.70;;
75050;SDS011;63628;47.656;11.310;2023-12-04T13:30:24;9.90;;;6.17;;
75050;SDS011;63628;47.656;11.310;2023-12-04T13:32:50;8.07;;;5.83;;
75050;SDS011;63628;47.656;11.310;2023-12-04T13:35:18;8.70;;;6.00;;
75050;SDS011;63628;47.656;11.310;2023-12-04T13:37:45;10.40;;;6.73;;
75050;SDS011;63628;47.656;11.310;2023-12-04T13:40:12;8.20;;;5.03;;
75050;SDS011;63628;47.656;11.310;2023-12-04T13:42:42;10.67;;;6.17;;
75050;SDS011;63628;47.656;11.310;2023-12-04T13:45:29;8.90;;;5.37;;
75050;SDS011;63628;47.656;11.310;2023-12-04T13:47:57;8.90;;;5.45;;
75050;SDS011;63628;47.656;11.310;2023-12-04T13:50:24;10.20;;;6.30;;
75050;SDS011;63628;47.656;11.310;2023-12-04T13:52:51;6.80;;;4.03;;
75050;SDS011;63628;47.656;11.310;2023-12-04T13:55:23;9.90;;;5.87;;
75050;SDS011;63628;47.656;11.310;2023-12-04T13:58:08;9.63;;;6.23;;
75050;SDS011;63628;47.656;11.310;2023-12-04T14:00:59;9.33;;;5.90;;
75050;SDS011;63628;47.656;11.310;2023-12-04T14:03:29;8.53;;;5.83;;
75050;SDS011;63628;47.656;11.310;2023-12-04T14:05:57;8.87;;;5.37;;
75050;SDS011;63628;47.656;11.310;2023-12-04T14:08:24;7.97;;;4.67;;
75050;SDS011;63628;47.656;11.310;2023-12-04T14:10:51;9.13;;;5.57;;
75050;SDS011;63628;47.656;11.310;2023-12-04T14:13:18;7.97;;;5.37;;
75050;SDS011;63628;47.656;11.310;2023-12-04T14:15:46;8.20;;;5.90;;
75050;SDS011;63628;47.656;11.310;2023-12-04T14:18:14;8.20;;;5.37;;
75050;SDS011;63628;47.656;11.310;2023-12-04T14:20:41;9.77;;;5.43;;
75050;SDS011;63628;47.656;11.310;2023-12-04T14:23:08;8.17;;;4.97;;
75050;SDS011;63628;47.656;11.310;2023-12-04T14:25:34;7.57;;;5.23;;
75050;SDS011;63628;47.656;11.310;2023-12-04T14:28:01;9.00;;;6.00;;
75050;SDS011;63628;47.656;11.310;2023-12-04T14:30:28;8.67;;;5.60;;
75050;SDS011;63628;47.656;11.310;2023-12-04T14:32:56;8.17;;;5.23;;
75050;SDS011;63628;47.656;11.310;2023-12-04T14:35:24;6.97;;;5.10;;
75050;SDS011;63628;47.656;11.310;2023-12-04T14:37:51;16.43;;;9.83;;
75050;SDS011;63628;47.656;11.310;2023-12-04T14:40:18;11.50;;;7.63;;
75050;SDS011;63628;47.656;11.310;2023-12-04T14:42:46;8.07;;;5.97;;
75050;SDS011;63628;47.656;11.310;2023-12-04T14:45:13;8.23;;;5.17;;
75050;SDS011;63628;47.656;11.310;2023-12-04T14:47:39;10.33;;;6.00;;
75050;SDS011;63628;47.656;11.310;2023-12-04T14:50:07;10.40;;;6.17;;
75050;SDS011;63628;47.656;11.310;2023-12-04T14:52:37;10.77;;;7.00;;
75050;SDS011;63628;47.656;11.310;2023-12-04T14:55:11;9.70;;;5.80;;